sensor_id;sensor_type;location;lat;lon;timestamp;P1;durP1;ratioP1;P2;durP2;ratioP2
36501;SDS011;25393;46.108;3.390;2023-05-15T00:01:36;24.17;;;13.43;;
36501;SDS011;25393;46.108;3.390;2023-05-15T00:04:03;24.67;;;13.10;;
36501;SDS011;25393;46.108;3.390;2023-05-15T00:06:30;23.23;;;12.57;;
36501;SDS011;25393;46.108;3.390;2023-05-15T00:08:56;22.52;;;12.02;;
36501;SDS011;25393;46.108;3.390;2023-05-15T00:11:23;19.67;;;10.52;;
36501;SDS011;25393;46.108;3.390;2023-05-15T00:13:53;19.42;;;12.48;;
36501;SDS011;25393;46.108;3.390;2023-05-15T00:16:19;21.70;;;12.00;;
36501;SDS011;25393;46.108;3.390;2023-05-15T00:18:46;21.30;;;12.27;;
36501;SDS011;25393;46.108;3.390;2023-05-15T00:21:12;19.65;;;11.55;;
36501;SDS011;25393;46.108;3.390;2023-05-15T00:23:39;22.58;;;11.75;;
36501;SDS011;25393;46.108;3.390;2023-05-15T00:26:05;17.83;;;11.20;;
36501;SDS011;25393;46.108;3.390;2023-05-15T00:28:32;15.57;;;9.77;;
36501;SDS011;25393;46.108;3.390;2023-05-15T00:30:58;21.98;;;11.50;;
36501;SDS011;25393;46.108;3.390;2023-05-15T00:33:25;20.13;;;12.13;;
36501;SDS011;25393;46.108;3.390;2023-05-15T00:35:51;18.55;;;11.40;;
36501;SDS011;25393;46.108;3.390;2023-05-15T00:38:18;21.70;;;12.40;;
36501;SDS011;25393;46.108;3.390;2023-05-15T00:40:44;21.35;;;11.95;;
36501;SDS011;25393;46.108;3.390;2023-05-15T00:43:11;19.65;;;11.82;;
36501;SDS011;25393;46.108;3.390;2023-05-15T00:45:39;22.42;;;11.68;;
36501;SDS011;25393;46.108;3.390;2023-05-15T00:48:08;18.40;;;11.23;;
36501;SDS011;25393;46.108;3.390;2023-05-15T00:50:35;23.65;;;12.15;;
36501;SDS011;25393;46.108;3.390;2023-05-15T00:53:03;26.45;;;14.00;;
36501;SDS011;25393;46.108;3.390;2023-05-15T00:55:31;26.63;;;12.75;;
36501;SDS011;25393;46.108;3.390;2023-05-15T00:57:59;23.92;;;13.00;;
36501;SDS011;25393;46.108;3.390;2023-05-15T01:00:26;24.30;;;12.80;;
36501;SDS011;25393;46.108;3.390;2023-05-15T01:02:53;25.38;;;12.13;;
36501;SDS011;25393;46.108;3.390;2023-05-15T01:05:20;17.23;;;11.27;;
36501;SDS011;25393;46.108;3.390;2023-05-15T01:07:56;24.15;;;11.73;;
36501;SDS011;25393;46.108;3.390;2023-05-15T01:10:32;23.45;;;12.23;;
36501;SDS011;25393;46.108;3.390;2023-05-15T01:13:00;21.73;;;11.50;;
36501;SDS011;25393;46.108;3.390;2023-05-15T01:15:27;22.90;;;12.88;;
36501;SDS011;25393;46.108;3.390;2023-05-15T01:17:54;24.90;;;12.38;;
36501;SDS011;25393;46.108;3.390;2023-05-15T01:20:21;20.05;;;11.82;;
36501;SDS011;25393;46.108;3.390;2023-05-15T01:28:04;21.88;;;12.57;;
36501;SDS011;25393;46.108;3.390;2023-05-15T01:30:37;22.98;;;11.93;;
36501;SDS011;25393;46.108;3.390;2023-05-15T01:38:38;19.48;;;11.18;;
36501;SDS011;25393;46.108;3.390;2023-05-15T01:43:41;17.60;;;10.32;;
36501;SDS011;25393;46.108;3.390;2023-05-15T01:46:12;27.02;;;12.27;;
36501;SDS011;25393;46.108;3.390;2023-05-15T01:48:41;25.17;;;13.02;;
36501;SDS011;25393;46.108;3.390;2023-05-15T01:51:11;25.75;;;11.65;;
36501;SDS011;25393;46.108;3.390;2023-05-15T01:53:39;21.02;;;11.05;;
36501;SDS011;25393;46.108;3.390;2023-05-15T01:56:08;24.83;;;11.48;;
36501;SDS011;25393;46.108;3.390;2023-05-15T01:58:37;24.65;;;12.52;;
36501;SDS011;25393;46.108;3.390;2023-05-15T02:01:05;21.13;;;12.23;;
36501;SDS011;25393;46.108;3.390;2023-05-15T02:03:34;22.35;;;11.55;;
36501;SDS011;25393;46.108;3.390;2023-05-15T02:06:01;18.90;;;12.10;;
36501;SDS011;25393;46.108;3.390;2023-05-15T02:08:31;19.67;;;11.55;;
36501;SDS011;25393;46.108;3.390;2023-05-15T02:10:58;23.27;;;12.50;;
36501;SDS011;25393;46.108;3.390;2023-05-15T02:13:26;26.45;;;12.27;;
36501;SDS011;25393;46.108;3.390;2023-05-15T02:15:53;19.23;;;10.95;;
36501;SDS011;25393;46.108;3.390;2023-05-15T02:18:20;21.90;;;11.45;;
36501;SDS011;25393;46.108;3.390;2023-05-15T02:20:47;19.52;;;10.75;;
36501;SDS011;25393;46.108;3.390;2023-05-15T02:23:13;16.67;;;10.18;;
36501;SDS011;25393;46.108;3.390;2023-05-15T02:29:00;20.67;;;10.77;;
36501;SDS011;25393;46.108;3.390;2023-05-15T02:34:49;21.35;;;11.73;;
36501;SDS011;25393;46.108;3.390;2023-05-15T02:37:23;21.77;;;11.73;;
36501;SDS011;25393;46.108;3.390;2023-05-15T02:39:54;15.68;;;9.52;;
36501;SDS011;25393;46.108;3.390;2023-05-15T02:42:23;23.10;;;11.32;;
36501;SDS011;25393;46.108;3.390;2023-05-15T02:44:52;27.48;;;11.55;;
36501;SDS011;25393;46.108;3.390;2023-05-15T02:47:20;20.00;;;10.73;;
36501;SDS011;25393;46.108;3.390;2023-05-15T02:49:48;19.40;;;11.20;;
36501;SDS011;25393;46.108;3.390;2023-05-15T02:52:15;19.40;;;11.27;;
36501;SDS011;25393;46.108;3.390;2023-05-15T02:54:42;19.58;;;11.32;;
36501;SDS011;25393;46.108;3.390;2023-05-15T02:57:09;18.92;;;9.93;;
36501;SDS011;25393;46.108;3.390;2023-05-15T02:59:35;17.60;;;10.50;;
36501;SDS011;25393;46.108;3.390;2023-05-15T03:02:02;16.70;;;9.40;;
36501;SDS011;25393;46.108;3.390;2023-05-15T03:04:29;19.85;;;10.48;;
36501;SDS011;25393;46.108;3.390;2023-05-15T03:06:55;16.38;;;11.02;;
36501;SDS011;25393;46.108;3.390;2023-05-15T03:09:22;23.75;;;12.40;;
36501;SDS011;25393;46.108;3.390;2023-05-15T03:11:48;16.60;;;10.27;;
36501;SDS011;25393;46.108;3.390;2023-05-15T03:14:15;22.75;;;11.63;;
36501;SDS011;25393;46.108;3.390;2023-05-15T03:16:41;17.98;;;10.40;;
36501;SDS011;25393;46.108;3.390;2023-05-15T03:19:08;18.10;;;11.00;;
36501;SDS011;25393;46.108;3.390;2023-05-15T03:21:34;20.35;;;10.23;;
36501;SDS011;25393;46.108;3.390;2023-05-15T03:24:01;17.35;;;10.13;;
36501;SDS011;25393;46.108;3.390;2023-05-15T03:26:27;22.80;;;11.20;;
36501;SDS011;25393;46.108;3.390;2023-05-15T03:28:54;17.85;;;10.27;;
36501;SDS011;25393;46.108;3.390;2023-05-15T03:31:23;19.73;;;11.35;;
36501;SDS011;25393;46.108;3.390;2023-05-15T03:33:49;18.10;;;10.45;;
36501;SDS011;25393;46.108;3.390;2023-05-15T03:36:16;19.17;;;10.52;;
36501;SDS011;25393;46.108;3.390;2023-05-15T03:38:43;19.88;;;11.25;;
36501;SDS011;25393;46.108;3.390;2023-05-15T03:41:09;20.05;;;10.88;;
36501;SDS011;25393;46.108;3.390;2023-05-15T03:43:42;19.63;;;11.05;;
36501;SDS011;25393;46.108;3.390;2023-05-15T03:46:08;17.15;;;10.68;;
36501;SDS011;25393;46.108;3.390;2023-05-15T03:48:35;20.13;;;10.57;;
36501;SDS011;25393;46.108;3.390;2023-05-15T03:51:02;17.05;;;10.82;;
36501;SDS011;25393;46.108;3.390;2023-05-15T03:53:28;18.08;;;10.13;;
36501;SDS011;25393;46.108;3.390;2023-05-15T03:55:55;23.17;;;10.73;;
36501;SDS011;25393;46.108;3.390;2023-05-15T03:58:21;22.63;;;11.63;;
36501;SDS011;25393;46.108;3.390;2023-05-15T04:00:48;19.67;;;11.30;;
36501;SDS011;25393;46.108;3.390;2023-05-15T04:03:14;20.33;;;11.52;;
36501;SDS011;25393;46.108;3.390;2023-05-15T04:05:41;19.42;;;10.63;;
36501;SDS011;25393;46.108;3.390;2023-05-15T04:08:08;19.45;;;10.38;;
36501;SDS011;25393;46.108;3.390;2023-05-15T04:10:36;17.45;;;11.23;;
36501;SDS011;25393;46.108;3.390;2023-05-15T04:13:02;19.73;;;11.95;;
36501;SDS011;25393;46.108;3.390;2023-05-15T04:15:28;16.98;;;9.95;;
36501;SDS011;25393;46.108;3.390;2023-05-15T04:17:55;19.73;;;11.68;;
36501;SDS011;25393;46.108;3.390;2023-05-15T04:20:22;19.80;;;11.20;;
36501;SDS011;25393;46.108;3.390;2023-05-15T04:22:50;19.77;;;12.35;;
36501;SDS011;25393;46.108;3.390;2023-05-15T04:25:18;19.98;;;11.75;;
36501;SDS011;25393;46.108;3.390;2023-05-15T04:27:45;23.65;;;12.35;;
36501;SDS011;25393;46.108;3.390;2023-05-15T04:30:12;21.65;;;11.63;;
36501;SDS011;25393;46.108;3.390;2023-05-15T04:32:39;18.73;;;10.68;;
36501;SDS011;25393;46.108;3.390;2023-05-15T04:35:06;21.60;;;11.32;;
36501;SDS011;25393;46.108;3.390;2023-05-15T04:37:38;17.25;;;9.95;;
36501;SDS011;25393;46.108;3.390;2023-05-15T04:40:06;18.65;;;9.90;;
36501;SDS011;25393;46.108;3.390;2023-05-15T04:42:34;19.05;;;10.23;;
36501;SDS011;25393;46.108;3.390;2023-05-15T04:45:03;18.00;;;9.32;;
36501;SDS011;25393;46.108;3.390;2023-05-15T04:47:30;13.98;;;8.75;;
36501;SDS011;25393;46.108;3.390;2023-05-15T04:49:57;17.40;;;10.25;;
36501;SDS011;25393;46.108;3.390;2023-05-15T04:52:24;20.48;;;10.65;;
36501;SDS011;25393;46.108;3.390;2023-05-15T04:54:50;19.88;;;9.60;;
36501;SDS011;25393;46.108;3.390;2023-05-15T04:57:18;15.18;;;8.77;;
36501;SDS011;25393;46.108;3.390;2023-05-15T04:59:44;14.57;;;8.15;;
36501;SDS011;25393;46.108;3.390;2023-05-15T05:02:11;13.88;;;8.85;;
36501;SDS011;25393;46.108;3.390;2023-05-15T05:04:37;17.85;;;10.93;;
36501;SDS011;25393;46.108;3.390;2023-05-15T05:07:07;21.80;;;10.15;;
36501;SDS011;25393;46.108;3.390;2023-05-15T05:09:33;18.08;;;11.00;;
36501;SDS011;25393;46.108;3.390;2023-05-15T05:12:00;18.77;;;10.40;;
36501;SDS011;25393;46.108;3.390;2023-05-15T05:14:29;17.98;;;11.02;;
36501;SDS011;25393;46.108;3.390;2023-05-15T05:16:56;15.98;;;10.60;;
36501;SDS011;25393;46.108;3.390;2023-05-15T05:19:23;16.65;;;10.77;;
36501;SDS011;25393;46.108;3.390;2023-05-15T05:21:49;17.83;;;10.82;;
36501;SDS011;25393;46.108;3.390;2023-05-15T05:24:17;20.20;;;10.40;;
36501;SDS011;25393;46.108;3.390;2023-05-15T05:26:43;18.08;;;10.63;;
36501;SDS011;25393;46.108;3.390;2023-05-15T05:29:10;17.75;;;10.02;;
36501;SDS011;25393;46.108;3.390;2023-05-15T05:31:37;15.80;;;9.32;;
36501;SDS011;25393;46.108;3.390;2023-05-15T05:34:03;15.50;;;9.75;;
36501;SDS011;25393;46.108;3.390;2023-05-15T05:36:30;19.20;;;10.57;;
36501;SDS011;25393;46.108;3.390;2023-05-15T05:38:56;19.67;;;11.05;;
36501;SDS011;25393;46.108;3.390;2023-05-15T05:41:23;19.05;;;11.45;;
36501;SDS011;25393;46.108;3.390;2023-05-15T05:43:49;21.92;;;10.85;;
36501;SDS011;25393;46.108;3.390;2023-05-15T05:46:16;19.73;;;11.02;;
36501;SDS011;25393;46.108;3.390;2023-05-15T05:48:42;18.20;;;10.63;;
36501;SDS011;25393;46.108;3.390;2023-05-15T05:51:09;20.48;;;12.07;;
36501;SDS011;25393;46.108;3.390;2023-05-15T05:53:35;21.70;;;11.90;;
36501;SDS011;25393;46.108;3.390;2023-05-15T05:56:04;18.83;;;11.25;;
36501;SDS011;25393;46.108;3.390;2023-05-15T05:58:31;16.13;;;9.95;;
36501;SDS011;25393;46.108;3.390;2023-05-15T06:00:58;19.50;;;10.65;;
36501;SDS011;25393;46.108;3.390;2023-05-15T06:03:26;18.15;;;10.88;;
36501;SDS011;25393;46.108;3.390;2023-05-15T06:05:53;17.15;;;11.07;;
36501;SDS011;25393;46.108;3.390;2023-05-15T06:08:20;29.27;;;12.98;;
36501;SDS011;25393;46.108;3.390;2023-05-15T06:10:46;17.55;;;10.98;;
36501;SDS011;25393;46.108;3.390;2023-05-15T06:13:13;24.42;;;10.80;;
36501;SDS011;25393;46.108;3.390;2023-05-15T06:15:40;19.60;;;11.38;;
36501;SDS011;25393;46.108;3.390;2023-05-15T06:18:07;19.02;;;10.30;;
36501;SDS011;25393;46.108;3.390;2023-05-15T06:20:33;26.25;;;12.80;;
36501;SDS011;25393;46.108;3.390;2023-05-15T06:23:00;20.70;;;12.50;;
36501;SDS011;25393;46.108;3.390;2023-05-15T06:25:26;20.85;;;12.68;;
36501;SDS011;25393;46.108;3.390;2023-05-15T06:27:53;25.95;;;13.50;;
36501;SDS011;25393;46.108;3.390;2023-05-15T06:30:20;23.10;;;12.80;;
36501;SDS011;25393;46.108;3.390;2023-05-15T06:32:47;25.58;;;14.30;;
36501;SDS011;25393;46.108;3.390;2023-05-15T06:35:14;27.65;;;14.27;;
36501;SDS011;25393;46.108;3.390;2023-05-15T06:37:41;30.83;;;15.38;;
36501;SDS011;25393;46.108;3.390;2023-05-15T06:40:07;34.00;;;15.55;;
36501;SDS011;25393;46.108;3.390;2023-05-15T06:42:35;25.90;;;14.98;;
36501;SDS011;25393;46.108;3.390;2023-05-15T06:45:01;28.60;;;14.98;;
36501;SDS011;25393;46.108;3.390;2023-05-15T06:47:28;31.30;;;15.27;;
36501;SDS011;25393;46.108;3.390;2023-05-15T06:49:55;23.42;;;15.15;;
36501;SDS011;25393;46.108;3.390;2023-05-15T06:52:21;26.10;;;13.68;;
36501;SDS011;25393;46.108;3.390;2023-05-15T06:54:48;23.88;;;13.98;;
36501;SDS011;25393;46.108;3.390;2023-05-15T06:57:15;22.90;;;13.30;;
36501;SDS011;25393;46.108;3.390;2023-05-15T06:59:41;24.42;;;14.90;;
36501;SDS011;25393;46.108;3.390;2023-05-15T07:02:08;33.22;;;15.02;;
36501;SDS011;25393;46.108;3.390;2023-05-15T07:04:35;29.13;;;14.95;;
36501;SDS011;25393;46.108;3.390;2023-05-15T07:07:01;24.52;;;15.00;;
36501;SDS011;25393;46.108;3.390;2023-05-15T07:09:28;23.33;;;13.93;;
36501;SDS011;25393;46.108;3.390;2023-05-15T07:11:55;28.13;;;14.70;;
36501;SDS011;25393;46.108;3.390;2023-05-15T07:14:29;25.75;;;15.68;;
36501;SDS011;25393;46.108;3.390;2023-05-15T07:16:56;29.33;;;14.50;;
36501;SDS011;25393;46.108;3.390;2023-05-15T07:19:22;24.15;;;13.77;;
36501;SDS011;25393;46.108;3.390;2023-05-15T07:21:49;25.00;;;13.85;;
36501;SDS011;25393;46.108;3.390;2023-05-15T07:24:16;28.58;;;14.30;;
36501;SDS011;25393;46.108;3.390;2023-05-15T07:26:42;27.50;;;14.30;;
36501;SDS011;25393;46.108;3.390;2023-05-15T07:29:24;23.63;;;14.35;;
36501;SDS011;25393;46.108;3.390;2023-05-15T07:31:51;24.40;;;14.55;;
36501;SDS011;25393;46.108;3.390;2023-05-15T07:34:18;26.23;;;14.35;;
36501;SDS011;25393;46.108;3.390;2023-05-15T07:36:45;28.33;;;14.45;;
36501;SDS011;25393;46.108;3.390;2023-05-15T07:39:12;25.38;;;14.18;;
36501;SDS011;25393;46.108;3.390;2023-05-15T07:41:39;24.77;;;14.20;;
36501;SDS011;25393;46.108;3.390;2023-05-15T07:44:05;26.63;;;13.88;;
36501;SDS011;25393;46.108;3.390;2023-05-15T07:46:33;27.50;;;13.82;;
36501;SDS011;25393;46.108;3.390;2023-05-15T07:49:00;25.00;;;14.48;;
36501;SDS011;25393;46.108;3.390;2023-05-15T07:51:27;30.08;;;13.98;;
36501;SDS011;25393;46.108;3.390;2023-05-15T07:53:54;25.58;;;13.63;;
36501;SDS011;25393;46.108;3.390;2023-05-15T07:56:20;28.83;;;14.63;;
36501;SDS011;25393;46.108;3.390;2023-05-15T07:58:48;32.70;;;14.95;;
36501;SDS011;25393;46.108;3.390;2023-05-15T08:01:15;22.67;;;14.50;;
36501;SDS011;25393;46.108;3.390;2023-05-15T08:03:41;27.70;;;14.60;;
36501;SDS011;25393;46.108;3.390;2023-05-15T08:06:09;25.52;;;14.77;;
36501;SDS011;25393;46.108;3.390;2023-05-15T08:08:35;23.52;;;14.48;;
36501;SDS011;25393;46.108;3.390;2023-05-15T08:11:02;26.45;;;14.85;;
36501;SDS011;25393;46.108;3.390;2023-05-15T08:13:29;28.33;;;15.43;;
36501;SDS011;25393;46.108;3.390;2023-05-15T08:15:56;31.05;;;16.20;;
36501;SDS011;25393;46.108;3.390;2023-05-15T08:18:23;29.20;;;15.75;;
36501;SDS011;25393;46.108;3.390;2023-05-15T08:20:49;31.77;;;19.25;;
36501;SDS011;25393;46.108;3.390;2023-05-15T08:23:17;24.73;;;15.93;;
36501;SDS011;25393;46.108;3.390;2023-05-15T08:25:44;25.85;;;17.67;;
36501;SDS011;25393;46.108;3.390;2023-05-15T08:28:11;23.05;;;16.85;;
36501;SDS011;25393;46.108;3.390;2023-05-15T08:30:38;25.88;;;17.13;;
36501;SDS011;25393;46.108;3.390;2023-05-15T08:33:04;22.95;;;18.63;;
36501;SDS011;25393;46.108;3.390;2023-05-15T08:35:31;27.75;;;17.58;;
36501;SDS011;25393;46.108;3.390;2023-05-15T08:37:58;26.73;;;13.80;;
36501;SDS011;25393;46.108;3.390;2023-05-15T08:40:24;23.10;;;16.35;;
36501;SDS011;25393;46.108;3.390;2023-05-15T08:43:14;23.48;;;16.52;;
36501;SDS011;25393;46.108;3.390;2023-05-15T08:45:42;22.67;;;16.75;;
36501;SDS011;25393;46.108;3.390;2023-05-15T08:48:10;27.92;;;17.10;;
36501;SDS011;25393;46.108;3.390;2023-05-15T08:50:39;23.90;;;15.60;;
36501;SDS011;25393;46.108;3.390;2023-05-15T08:53:06;31.92;;;16.75;;
36501;SDS011;25393;46.108;3.390;2023-05-15T08:55:33;24.88;;;14.50;;
36501;SDS011;25393;46.108;3.390;2023-05-15T08:58:00;26.98;;;15.85;;
36501;SDS011;25393;46.108;3.390;2023-05-15T09:00:27;26.17;;;15.55;;
36501;SDS011;25393;46.108;3.390;2023-05-15T09:02:54;18.50;;;13.52;;
36501;SDS011;25393;46.108;3.390;2023-05-15T09:05:20;32.20;;;14.25;;
36501;SDS011;25393;46.108;3.390;2023-05-15T09:07:47;19.00;;;13.65;;
36501;SDS011;25393;46.108;3.390;2023-05-15T09:10:16;22.42;;;15.68;;
36501;SDS011;25393;46.108;3.390;2023-05-15T09:12:42;24.35;;;14.88;;
36501;SDS011;25393;46.108;3.390;2023-05-15T09:17:42;17.63;;;13.68;;
36501;SDS011;25393;46.108;3.390;2023-05-15T09:20:23;18.98;;;11.88;;
36501;SDS011;25393;46.108;3.390;2023-05-15T09:22:58;20.02;;;12.57;;
36501;SDS011;25393;46.108;3.390;2023-05-15T09:25:33;18.30;;;13.02;;
36501;SDS011;25393;46.108;3.390;2023-05-15T09:28:07;18.40;;;12.65;;
36501;SDS011;25393;46.108;3.390;2023-05-15T09:30:36;14.27;;;11.50;;
36501;SDS011;25393;46.108;3.390;2023-05-15T09:33:03;19.02;;;12.90;;
36501;SDS011;25393;46.108;3.390;2023-05-15T09:35:31;17.60;;;10.82;;
36501;SDS011;25393;46.108;3.390;2023-05-15T09:38:05;15.85;;;10.95;;
36501;SDS011;25393;46.108;3.390;2023-05-15T09:40:42;16.10;;;11.80;;
36501;SDS011;25393;46.108;3.390;2023-05-15T09:43:09;12.75;;;8.15;;
36501;SDS011;25393;46.108;3.390;2023-05-15T09:45:36;11.50;;;8.95;;
36501;SDS011;25393;46.108;3.390;2023-05-15T09:48:03;13.38;;;10.95;;
36501;SDS011;25393;46.108;3.390;2023-05-15T09:50:33;16.02;;;10.90;;
36501;SDS011;25393;46.108;3.390;2023-05-15T09:53:01;13.85;;;9.57;;
36501;SDS011;25393;46.108;3.390;2023-05-15T09:55:32;12.77;;;9.20;;
36501;SDS011;25393;46.108;3.390;2023-05-15T09:58:07;14.02;;;8.65;;
36501;SDS011;25393;46.108;3.390;2023-05-15T10:00:37;13.07;;;8.80;;
36501;SDS011;25393;46.108;3.390;2023-05-15T10:03:14;13.98;;;8.68;;
36501;SDS011;25393;46.108;3.390;2023-05-15T10:05:42;15.00;;;9.65;;
36501;SDS011;25393;46.108;3.390;2023-05-15T10:08:09;11.50;;;8.77;;
36501;SDS011;25393;46.108;3.390;2023-05-15T10:10:36;11.70;;;9.48;;
36501;SDS011;25393;46.108;3.390;2023-05-15T10:13:03;18.55;;;9.15;;
36501;SDS011;25393;46.108;3.390;2023-05-15T10:15:33;11.90;;;9.63;;
36501;SDS011;25393;46.108;3.390;2023-05-15T10:18:00;14.18;;;9.43;;
36501;SDS011;25393;46.108;3.390;2023-05-15T10:20:27;11.95;;;9.55;;
36501;SDS011;25393;46.108;3.390;2023-05-15T10:22:55;17.10;;;8.80;;
36501;SDS011;25393;46.108;3.390;2023-05-15T10:25:39;12.50;;;9.43;;
36501;SDS011;25393;46.108;3.390;2023-05-15T10:28:10;14.43;;;9.48;;
36501;SDS011;25393;46.108;3.390;2023-05-15T10:30:37;18.92;;;10.07;;
36501;SDS011;25393;46.108;3.390;2023-05-15T10:33:05;11.88;;;9.30;;
36501;SDS011;25393;46.108;3.390;2023-05-15T10:35:40;16.08;;;9.50;;
36501;SDS011;25393;46.108;3.390;2023-05-15T10:38:08;12.02;;;8.98;;
36501;SDS011;25393;46.108;3.390;2023-05-15T10:40:36;14.15;;;8.63;;
36501;SDS011;25393;46.108;3.390;2023-05-15T10:43:04;9.73;;;8.07;;
36501;SDS011;25393;46.108;3.390;2023-05-15T10:45:32;10.00;;;8.07;;
36501;SDS011;25393;46.108;3.390;2023-05-15T10:48:01;9.07;;;7.80;;
36501;SDS011;25393;46.108;3.390;2023-05-15T10:50:30;15.23;;;9.00;;
36501;SDS011;25393;46.108;3.390;2023-05-15T10:52:57;11.90;;;7.50;;
36501;SDS011;25393;46.108;3.390;2023-05-15T10:55:23;9.40;;;8.38;;
36501;SDS011;25393;46.108;3.390;2023-05-15T10:57:50;11.13;;;8.23;;
36501;SDS011;25393;46.108;3.390;2023-05-15T11:00:24;10.48;;;7.70;;
36501;SDS011;25393;46.108;3.390;2023-05-15T11:02:53;10.20;;;7.32;;
36501;SDS011;25393;46.108;3.390;2023-05-15T11:05:24;13.50;;;6.78;;
36501;SDS011;25393;46.108;3.390;2023-05-15T11:10:51;8.88;;;6.75;;
36501;SDS011;25393;46.108;3.390;2023-05-15T11:13:18;10.82;;;6.78;;
36501;SDS011;25393;46.108;3.390;2023-05-15T11:15:46;9.80;;;7.43;;
36501;SDS011;25393;46.108;3.390;2023-05-15T11:18:16;8.23;;;7.28;;
36501;SDS011;25393;46.108;3.390;2023-05-15T11:23:20;8.75;;;7.85;;
36501;SDS011;25393;46.108;3.390;2023-05-15T11:25:56;9.30;;;7.18;;
36501;SDS011;25393;46.108;3.390;2023-05-15T11:28:24;8.90;;;6.97;;
36501;SDS011;25393;46.108;3.390;2023-05-15T11:30:51;9.07;;;7.10;;
36501;SDS011;25393;46.108;3.390;2023-05-15T11:33:25;10.02;;;8.23;;
36501;SDS011;25393;46.108;3.390;2023-05-15T11:35:58;7.72;;;6.80;;
36501;SDS011;25393;46.108;3.390;2023-05-15T11:38:25;11.32;;;7.45;;
36501;SDS011;25393;46.108;3.390;2023-05-15T11:40:53;11.57;;;7.55;;
36501;SDS011;25393;46.108;3.390;2023-05-15T11:43:28;8.95;;;7.47;;
36501;SDS011;25393;46.108;3.390;2023-05-15T11:45:56;10.20;;;8.25;;
36501;SDS011;25393;46.108;3.390;2023-05-15T11:48:24;8.15;;;6.28;;
36501;SDS011;25393;46.108;3.390;2023-05-15T11:51:00;12.00;;;6.97;;
36501;SDS011;25393;46.108;3.390;2023-05-15T11:53:28;10.18;;;6.88;;
36501;SDS011;25393;46.108;3.390;2023-05-15T11:55:56;12.20;;;7.78;;
36501;SDS011;25393;46.108;3.390;2023-05-15T11:58:23;7.90;;;7.10;;
36501;SDS011;25393;46.108;3.390;2023-05-15T12:00:51;9.35;;;6.82;;
36501;SDS011;25393;46.108;3.390;2023-05-15T12:03:25;9.00;;;6.50;;
36501;SDS011;25393;46.108;3.390;2023-05-15T12:05:53;12.60;;;6.93;;
36501;SDS011;25393;46.108;3.390;2023-05-15T12:08:25;8.93;;;6.43;;
36501;SDS011;25393;46.108;3.390;2023-05-15T12:10:57;7.05;;;5.40;;
36501;SDS011;25393;46.108;3.390;2023-05-15T12:13:25;10.70;;;7.22;;
36501;SDS011;25393;46.108;3.390;2023-05-15T12:15:54;7.70;;;5.97;;
36501;SDS011;25393;46.108;3.390;2023-05-15T12:18:22;7.40;;;6.18;;
36501;SDS011;25393;46.108;3.390;2023-05-15T12:20:52;7.35;;;6.28;;
36501;SDS011;25393;46.108;3.390;2023-05-15T12:23:20;7.28;;;5.88;;
36501;SDS011;25393;46.108;3.390;2023-05-15T12:25:48;9.70;;;6.22;;
36501;SDS011;25393;46.108;3.390;2023-05-15T12:28:16;7.45;;;6.40;;
36501;SDS011;25393;46.108;3.390;2023-05-15T12:30:43;10.88;;;6.95;;
36501;SDS011;25393;46.108;3.390;2023-05-15T12:33:10;11.15;;;5.45;;
36501;SDS011;25393;46.108;3.390;2023-05-15T12:35:40;8.55;;;6.60;;
36501;SDS011;25393;46.108;3.390;2023-05-15T12:38:09;8.85;;;7.13;;
36501;SDS011;25393;46.108;3.390;2023-05-15T12:40:40;9.32;;;6.53;;
36501;SDS011;25393;46.108;3.390;2023-05-15T12:43:09;15.07;;;6.55;;
36501;SDS011;25393;46.108;3.390;2023-05-15T12:45:38;7.00;;;6.07;;
36501;SDS011;25393;46.108;3.390;2023-05-15T12:48:05;8.00;;;5.53;;
36501;SDS011;25393;46.108;3.390;2023-05-15T12:50:33;6.40;;;4.72;;
36501;SDS011;25393;46.108;3.390;2023-05-15T12:53:01;6.60;;;5.80;;
36501;SDS011;25393;46.108;3.390;2023-05-15T12:55:30;6.13;;;5.13;;
36501;SDS011;25393;46.108;3.390;2023-05-15T12:58:01;6.55;;;5.38;;
36501;SDS011;25393;46.108;3.390;2023-05-15T13:00:33;7.07;;;5.65;;
36501;SDS011;25393;46.108;3.390;2023-05-15T13:03:00;10.70;;;5.32;;
36501;SDS011;25393;46.108;3.390;2023-05-15T13:05:30;7.07;;;4.95;;
36501;SDS011;25393;46.108;3.390;2023-05-15T13:07:58;13.52;;;5.68;;
36501;SDS011;25393;46.108;3.390;2023-05-15T13:10:26;8.02;;;5.10;;
36501;SDS011;25393;46.108;3.390;2023-05-15T13:12:54;7.00;;;5.00;;
36501;SDS011;25393;46.108;3.390;2023-05-15T13:17:54;13.30;;;5.07;;
36501;SDS011;25393;46.108;3.390;2023-05-15T13:20:23;9.07;;;4.97;;
36501;SDS011;25393;46.108;3.390;2023-05-15T13:22:50;5.97;;;4.55;;
36501;SDS011;25393;46.108;3.390;2023-05-15T13:25:17;5.72;;;5.15;;
36501;SDS011;25393;46.108;3.390;2023-05-15T13:27:48;9.30;;;4.85;;
36501;SDS011;25393;46.108;3.390;2023-05-15T13:30:15;10.93;;;5.05;;
36501;SDS011;25393;46.108;3.390;2023-05-15T13:32:43;4.85;;;4.45;;
36501;SDS011;25393;46.108;3.390;2023-05-15T13:35:10;4.78;;;4.38;;
36501;SDS011;25393;46.108;3.390;2023-05-15T13:37:36;5.88;;;4.28;;
36501;SDS011;25393;46.108;3.390;2023-05-15T13:40:03;6.90;;;5.65;;
36501;SDS011;25393;46.108;3.390;2023-05-15T13:42:32;6.55;;;4.32;;
36501;SDS011;25393;46.108;3.390;2023-05-15T13:44:58;6.25;;;4.72;;
36501;SDS011;25393;46.108;3.390;2023-05-15T13:47:25;7.40;;;5.50;;
36501;SDS011;25393;46.108;3.390;2023-05-15T13:49:52;6.25;;;5.40;;
36501;SDS011;25393;46.108;3.390;2023-05-15T13:52:18;5.63;;;5.13;;
36501;SDS011;25393;46.108;3.390;2023-05-15T13:54:45;5.70;;;4.18;;
36501;SDS011;25393;46.108;3.390;2023-05-15T13:57:11;5.07;;;4.50;;
36501;SDS011;25393;46.108;3.390;2023-05-15T13:59:38;8.80;;;5.00;;
36501;SDS011;25393;46.108;3.390;2023-05-15T14:02:05;6.07;;;4.65;;
36501;SDS011;25393;46.108;3.390;2023-05-15T14:04:31;4.90;;;4.50;;
36501;SDS011;25393;46.108;3.390;2023-05-15T14:06:58;10.27;;;5.45;;
36501;SDS011;25393;46.108;3.390;2023-05-15T14:09:25;7.32;;;4.65;;
36501;SDS011;25393;46.108;3.390;2023-05-15T14:11:51;6.30;;;4.63;;
36501;SDS011;25393;46.108;3.390;2023-05-15T14:14:18;5.03;;;4.63;;
36501;SDS011;25393;46.108;3.390;2023-05-15T14:16:45;9.05;;;5.20;;
36501;SDS011;25393;46.108;3.390;2023-05-15T14:19:12;5.38;;;4.88;;
36501;SDS011;25393;46.108;3.390;2023-05-15T14:21:39;6.45;;;5.05;;
36501;SDS011;25393;46.108;3.390;2023-05-15T14:24:05;5.50;;;5.00;;
36501;SDS011;25393;46.108;3.390;2023-05-15T14:26:32;5.65;;;5.07;;
36501;SDS011;25393;46.108;3.390;2023-05-15T14:28:59;9.10;;;4.93;;
36501;SDS011;25393;46.108;3.390;2023-05-15T14:31:26;6.05;;;4.68;;
36501;SDS011;25393;46.108;3.390;2023-05-15T14:33:52;4.97;;;4.55;;
36501;SDS011;25393;46.108;3.390;2023-05-15T14:36:19;5.55;;;5.10;;
36501;SDS011;25393;46.108;3.390;2023-05-15T14:38:46;7.05;;;4.50;;
36501;SDS011;25393;46.108;3.390;2023-05-15T14:41:14;5.75;;;4.80;;
36501;SDS011;25393;46.108;3.390;2023-05-15T14:43:40;6.50;;;4.68;;
36501;SDS011;25393;46.108;3.390;2023-05-15T14:46:07;5.53;;;4.60;;
36501;SDS011;25393;46.108;3.390;2023-05-15T14:48:36;6.75;;;4.53;;
36501;SDS011;25393;46.108;3.390;2023-05-15T14:51:03;8.40;;;4.90;;
36501;SDS011;25393;46.108;3.390;2023-05-15T14:53:30;8.20;;;4.65;;
36501;SDS011;25393;46.108;3.390;2023-05-15T14:55:57;4.97;;;4.50;;
36501;SDS011;25393;46.108;3.390;2023-05-15T14:58:24;11.32;;;4.85;;
36501;SDS011;25393;46.108;3.390;2023-05-15T15:00:51;5.70;;;4.20;;
36501;SDS011;25393;46.108;3.390;2023-05-15T15:03:17;5.28;;;4.75;;